Time;durP1;ratioP1;P1;durP2;ratioP2;P2;SDS_P1;SDS_P2;PMS_P1;PMS_P2;Temp;Humidity;BMP_temperature;BMP_pressure;BME280_temperature;BME280_humidity;BME280_pressure;Samples;Min_cycle;Max_cycle;Signal;HPM_P1;HPM_P2
2023/10/07 00:02:14;;;;;;;0.77;0.77;;;;;;;17.70;nan;61497.81;5032394;28;20171;-63
2023/10/07 00:04:40;;;;;;;1.42;0.90;;;;;;;17.50;nan;61349.13;5032328;28;20274;-63
2023/10/07 00:07:10;;;;;;;0.98;0.98;;;;;;;17.48;nan;61357.22;5032177;28;20175;-63
2023/10/07 00:09:43;;;;;;;1.40;1.30;;;;;;;17.56;nan;61257.75;5031976;28;20222;-63
2023/10/07 00:12:18;;;;;;;0.80;0.80;;;;;;;17.87;nan;61467.94;5032513;28;20263;-63
2023/10/07 00:14:44;;;;;;;0.80;0.80;;;;;;;17.70;nan;61327.84;5032293;28;20656;-63
2023/10/07 00:17:17;;;;;;;0.70;0.70;;;;;;;17.72;nan;61347.63;5032215;28;20266;-63
2023/10/07 00:19:46;;;;;;;1.27;1.02;;;;;;;17.54;nan;61340.75;5032219;28;20614;-63
2023/10/07 00:22:14;;;;;;;1.35;1.25;;;;;;;17.17;nan;61302.66;5031325;28;20643;-63
2023/10/07 00:24:45;;;;;;;0.75;0.75;;;;;;;16.96;nan;61376.44;5031861;28;20202;-63
2023/10/07 00:27:27;;;;;;;0.80;0.73;;;;;;;16.84;nan;61373.19;5032153;28;20202;-63
2023/10/07 00:29:55;;;;;;;0.90;0.90;;;;;;;17.14;nan;61286.38;5032268;28;20175;-63
2023/10/07 00:32:32;;;;;;;0.95;0.93;;;;;;;16.86;nan;61424.47;5032190;28;20182;-62
2023/10/07 00:35:01;;;;;;;0.47;0.47;;;;;;;16.81;nan;61282.66;5019359;28;20265;-63
2023/10/07 00:37:30;;;;;;;0.70;0.70;;;;;;;16.89;nan;61283.94;5011713;28;20168;-63
2023/10/07 00:40:00;;;;;;;0.73;0.73;;;;;;;17.09;nan;61420.09;5010424;28;20258;-64
2023/10/07 00:42:26;;;;;;;0.82;0.82;;;;;;;16.79;nan;61406.78;5012129;28;20168;-64
2023/10/07 00:44:53;;;;;;;1.63;1.40;;;;;;;16.67;nan;61378.31;5011688;28;20583;-63
2023/10/07 00:47:20;;;;;;;0.82;0.82;;;;;;;16.65;nan;61458.03;5011308;28;20203;-63
2023/10/07 00:52:29;;;;;;;0.90;0.90;;;;;;;16.57;nan;61217.41;5011616;28;20180;-63
2023/10/07 00:59:59;;;;;;;0.90;0.90;;;;;;;16.33;nan;61324.94;5011344;28;20192;-62
2023/10/07 01:02:31;;;;;;;0.98;0.95;;;;;;;16.33;nan;61167.69;5011588;28;20252;-62
2023/10/07 01:05:06;;;;;;;1.90;1.08;;;;;;;16.24;nan;61200.78;5011587;28;20184;-63
2023/10/07 01:07:34;;;;;;;1.27;1.17;;;;;;;16.11;nan;61400.59;5011545;28;20174;-63
2023/10/07 01:10:12;;;;;;;0.95;0.95;;;;;;;16.26;nan;61326.78;5011382;28;20647;-63
2023/10/07 01:12:39;;;;;;;0.80;0.80;;;;;;;16.34;nan;61217.78;5011318;28;20178;-63
2023/10/07 01:15:12;;;;;;;2.40;1.25;;;;;;;16.11;nan;61294.94;5011073;28;20565;-63
2023/10/07 01:17:40;;;;;;;0.93;0.93;;;;;;;16.09;nan;61431.28;5011436;28;20168;-63
2023/10/07 01:20:08;;;;;;;0.90;0.90;;;;;;;15.81;nan;61315.69;5010738;28;20192;-64
2023/10/07 01:22:42;;;;;;;1.35;1.25;;;;;;;15.90;nan;61179.03;5014774;28;20171;-63
2023/10/07 01:25:09;;;;;;;0.98;0.98;;;;;;;15.64;nan;61278.44;5023566;28;20223;-62
2023/10/07 01:27:42;;;;;;;0.80;0.80;;;;;;;15.56;nan;61096.91;5011221;28;20172;-62
2023/10/07 01:30:16;;;;;;;0.90;0.90;;;;;;;15.51;nan;61279.22;5024509;28;20179;-63
2023/10/07 01:32:54;;;;;;;1.77;1.10;;;;;;;15.24;nan;61223.50;5031813;28;21005;-62
2023/10/07 01:35:26;;;;;;;1.10;1.00;;;;;;;15.47;nan;61097.59;5034570;28;20768;-63
2023/10/07 01:38:07;;;;;;;0.90;0.90;;;;;;;15.35;nan;61353.78;5034668;28;20208;-62
2023/10/07 01:40:55;;;;;;;1.15;0.80;;;;;;;15.38;nan;61133.22;5034652;28;20198;-63
2023/10/07 01:43:20;;;;;;;1.80;1.05;;;;;;;15.29;nan;61246.59;5034342;28;20170;-63
2023/10/07 01:45:48;;;;;;;0.80;0.80;;;;;;;15.07;nan;61208.91;5034363;28;20199;-62
2023/10/07 01:48:17;;;;;;;0.93;0.93;;;;;;;15.22;nan;61210.38;5034419;28;20171;-64
2023/10/07 01:50:46;;;;;;;0.82;0.82;;;;;;;15.16;nan;61229.91;5034532;28;20532;-62
2023/10/07 01:53:14;;;;;;;1.00;1.00;;;;;;;14.87;nan;61048.00;5034175;28;20183;-62
2023/10/07 01:55:43;;;;;;;0.90;0.90;;;;;;;15.14;nan;61101.00;5034155;28;20201;-63
2023/10/07 01:58:13;;;;;;;1.20;1.20;;;;;;;15.17;nan;61101.81;5033846;28;20223;-62
2023/10/07 02:00:46;;;;;;;1.05;1.05;;;;;;;14.76;nan;61164.72;5034218;28;20176;-63
2023/10/07 02:03:13;;;;;;;0.85;0.85;;;;;;;14.83;nan;61172.66;5034129;28;20178;-62
2023/10/07 02:05:49;;;;;;;0.80;0.80;;;;;;;14.83;nan;61172.66;5034035;28;20199;-62
2023/10/07 02:08:22;;;;;;;0.80;0.80;;;;;;;14.92;nan;61118.50;5033955;28;20623;-62
2023/10/07 02:10:49;;;;;;;1.20;1.10;;;;;;;14.87;nan;61079.44;5034006;28;20166;-63
2023/10/07 02:13:19;;;;;;;0.77;0.77;;;;;;;14.76;nan;61318.44;5033931;28;20195;-62
2023/10/07 02:15:48;;;;;;;1.48;1.17;;;;;;;14.74;nan;61044.22;5033774;28;20199;-61
2023/10/07 02:18:17;;;;;;;0.80;0.80;;;;;;;14.67;nan;61071.75;5033722;28;20183;-63
2023/10/07 02:21:06;;;;;;;0.90;0.90;;;;;;;14.72;nan;61033.66;5033769;28;20194;-62
2023/10/07 02:23:45;;;;;;;0.82;0.82;;;;;;;14.63;nan;61049.25;5033957;28;20179;-63
2023/10/07 02:26:23;;;;;;;0.85;0.85;;;;;;;14.33;nan;61147.59;5033783;28;20172;-63
2023/10/07 02:28:52;;;;;;;1.30;1.20;;;;;;;14.59;nan;61078.72;5033715;28;20313;-61
2023/10/07 02:31:25;;;;;;;1.13;1.13;;;;;;;14.58;nan;61172.69;5033903;28;20171;-63
2023/10/07 02:33:52;;;;;;;1.10;1.10;;;;;;;14.47;nan;61018.94;5033736;28;20167;-63
2023/10/07 02:36:36;;;;;;;1.00;1.00;;;;;;;14.20;nan;61011.63;5033527;28;20176;-62
2023/10/07 02:39:18;;;;;;;1.20;1.10;;;;;;;14.33;nan;61257.53;5032420;28;20310;-63
2023/10/07 02:41:46;;;;;;;1.08;1.05;;;;;;;13.07;nan;60929.69;5033542;28;20166;-62
2023/10/07 02:44:16;;;;;;;0.70;0.70;;;;;;;14.39;nan;61133.81;5032663;28;20207;-63
2023/10/07 02:46:42;;;;;;;0.82;0.82;;;;;;;14.13;nan;61079.38;5033397;28;20173;-62
2023/10/07 02:49:10;;;;;;;0.88;0.88;;;;;;;14.14;nan;60905.25;5032844;28;20254;-62
2023/10/07 02:51:55;;;;;;;0.95;0.95;;;;;;;14.29;nan;61130.22;5033233;28;20152;-62
2023/10/07 02:54:21;;;;;;;0.80;0.80;;;;;;;14.26;nan;61016.38;5032988;28;20182;-64
2023/10/07 02:59:35;;;;;;;0.80;0.80;;;;;;;13.99;nan;60842.72;5033119;28;20190;-63
2023/10/07 03:04:43;;;;;;;0.80;0.80;;;;;;;14.16;nan;60984.56;5032800;28;20198;-62
2023/10/07 03:07:15;;;;;;;1.85;1.00;;;;;;;13.97;nan;60950.88;5033011;28;20176;-62
2023/10/07 03:09:51;;;;;;;1.20;1.10;;;;;;;14.22;nan;60993.31;5033008;28;20630;-62
2023/10/07 03:12:27;;;;;;;1.48;1.38;;;;;;;14.22;nan;61017.00;5032883;28;20664;-62
2023/10/07 03:14:55;;;;;;;0.90;0.90;;;;;;;13.99;nan;61127.78;5032591;28;20179;-63
2023/10/07 03:17:21;;;;;;;0.88;0.88;;;;;;;14.21;nan;61021.00;5015811;28;20565;-63
2023/10/07 03:19:56;;;;;;;1.08;1.02;;;;;;;14.16;nan;60954.28;5011800;28;20277;-63
2023/10/07 03:22:42;;;;;;;1.40;1.30;;;;;;;14.23;nan;60997.03;5019482;28;20277;-62
2023/10/07 03:25:08;;;;;;;1.00;1.00;;;;;;;14.10;nan;60957.81;5006633;28;20207;-63
2023/10/07 03:27:39;;;;;;;1.08;1.08;;;;;;;13.96;nan;61051.94;5019194;28;20176;-62
2023/10/07 03:30:15;;;;;;;1.02;1.00;;;;;;;13.84;nan;60949.09;5011092;28;20184;-63
2023/10/07 03:32:57;;;;;;;1.08;1.08;;;;;;;13.59;nan;60911.28;5011438;28;20690;-62
2023/10/07 03:36:07;;;;;;;1.08;0.80;;;;;;;13.72;nan;60935.59;5007344;28;20277;-63
2023/10/07 03:38:25;;;;;;;1.00;1.00;;;;;;;13.70;nan;60962.13;5015025;28;20277;-63
2023/10/07 03:40:55;;;;;;;1.17;1.08;;;;;;;13.52;nan;60890.00;5014617;28;20184;-62
2023/10/07 03:43:25;;;;;;;1.10;1.00;;;;;;;13.61;nan;60946.31;5014642;28;20191;-63
2023/10/07 03:45:51;;;;;;;1.30;1.20;;;;;;;13.40;nan;60905.28;5013224;28;20219;-62
2023/10/07 03:51:12;;;;;;;1.00;1.00;;;;;;;13.48;nan;61047.16;5000233;28;20191;-62
2023/10/07 03:53:47;;;;;;;0.88;0.88;;;;;;;13.75;nan;60951.81;5011165;28;20194;-62
2023/10/07 03:56:15;;;;;;;0.93;0.93;;;;;;;13.65;nan;60925.72;5010435;28;20237;-63
2023/10/07 03:58:42;;;;;;;1.17;1.13;;;;;;;13.38;nan;60928.69;5021415;28;20237;-64
2023/10/07 04:01:17;;;;;;;1.23;1.13;;;;;;;13.43;nan;60949.16;5019486;28;20176;-63
2023/10/07 04:03:47;;;;;;;1.45;1.40;;;;;;;13.69;nan;61034.88;5011046;28;20191;-61
2023/10/07 04:06:30;;;;;;;1.00;1.00;;;;;;;13.58;nan;60951.22;5010118;28;20208;-62
2023/10/07 04:09:05;;;;;;;0.85;0.75;;;;;;;13.36;nan;61064.41;5004162;28;20187;-62
2023/10/07 04:11:31;;;;;;;1.25;1.00;;;;;;;13.38;nan;61051.28;5010301;28;20213;-63
2023/10/07 04:13:58;;;;;;;1.00;1.00;;;;;;;13.27;nan;61019.47;5023419;28;20286;-63
2023/10/07 04:16:24;;;;;;;1.40;1.30;;;;;;;13.45;nan;60939.16;5013633;28;20237;-63
2023/10/07 04:18:51;;;;;;;1.63;1.23;;;;;;;13.05;nan;60825.44;5010760;28;20271;-63
2023/10/07 04:21:17;;;;;;;3.03;1.00;;;;;;;13.35;nan;60856.06;5010868;28;20655;-61
2023/10/07 04:23:44;;;;;;;1.10;1.10;;;;;;;13.31;nan;60853.56;5010730;28;20282;-62
2023/10/07 04:26:19;;;;;;;4.65;1.10;;;;;;;13.00;nan;60922.38;5010590;28;20249;-62
2023/10/07 04:28:48;;;;;;;1.17;1.10;;;;;;;12.89;nan;60819.72;5010386;28;20607;-61
2023/10/07 04:31:17;;;;;;;1.60;1.50;;;;;;;10.45;nan;61527.72;5010350;28;20657;-63
2023/10/07 04:33:53;;;;;;;1.25;1.15;;;;;;;9.96;nan;60762.72;5009697;28;20678;-62
2023/10/07 04:36:32;;;;;;;2.08;1.65;;;;;;;12.72;nan;60844.72;5010364;28;20184;-63
2023/10/07 04:38:58;;;;;;;1.67;1.58;;;;;;;10.16;nan;62217.22;5010400;28;20247;-63
2023/10/07 04:43:54;;;;;;;2.05;1.58;;;;;;;12.78;nan;60849.47;5010074;28;20176;-62
2023/10/07 04:46:23;;;;;;;2.55;1.80;;;;;;;12.48;nan;60848.50;5011092;28;20188;-63
2023/10/07 04:48:56;;;;;;;6.88;1.70;;;;;;;12.67;nan;60839.66;5012404;28;20180;-63
2023/10/07 04:54:01;;;;;;;1.83;1.48;;;;;;;12.57;nan;60982.16;5014062;28;20691;-62
2023/10/07 04:56:27;;;;;;;2.20;1.45;;;;;;;12.65;nan;60975.81;5011422;28;20210;-64
2023/10/07 04:58:53;;;;;;;1.80;1.40;;;;;;;12.59;nan;60851.19;5009843;28;20231;-62
2023/10/07 05:01:30;;;;;;;1.35;1.25;;;;;;;12.72;nan;60957.47;5025700;28;20217;-66
2023/10/07 05:04:10;;;;;;;1.50;1.40;;;;;;;12.81;nan;60829.78;5013201;28;20183;-63
2023/10/07 05:06:37;;;;;;;2.00;1.80;;;;;;;12.94;nan;60984.28;5016174;28;20187;-64
2023/10/07 05:09:09;;;;;;;1.40;1.30;;;;;;;13.02;nan;60865.66;5022840;28;20555;-65
2023/10/07 05:11:37;;;;;;;1.40;1.30;;;;;;;12.97;nan;60988.22;5029999;28;20190;-64
2023/10/07 05:14:07;;;;;;;2.08;1.33;;;;;;;13.29;nan;61062.22;5017192;28;20188;-64
2023/10/07 05:16:34;;;;;;;1.30;1.20;;;;;;;13.45;nan;60928.31;5014057;28;20184;-65
2023/10/07 05:19:00;;;;;;;1.42;1.33;;;;;;;13.60;nan;60866.19;5014177;28;20188;-64
2023/10/07 05:21:27;;;;;;;1.50;1.40;;;;;;;13.52;nan;60982.38;5026723;28;20194;-63
2023/10/07 05:23:52;;;;;;;1.35;1.23;;;;;;;13.57;nan;60998.28;5016683;28;20180;-65
2023/10/07 05:26:18;;;;;;;0.88;0.88;;;;;;;13.88;nan;61087.13;5030397;28;20231;-63
2023/10/07 05:28:46;;;;;;;1.08;1.08;;;;;;;13.86;nan;60961.06;5015052;28;20631;-66
2023/10/07 05:31:14;;;;;;;1.63;1.52;;;;;;;13.83;nan;61073.22;5024724;28;20187;-64
2023/10/07 05:33:42;;;;;;;1.50;1.38;;;;;;;13.87;nan;60915.97;5034779;28;20171;-65
2023/10/07 05:36:13;;;;;;;1.10;1.10;;;;;;;13.99;nan;61081.56;5034512;28;20217;-65
2023/10/07 05:38:44;;;;;;;1.50;1.38;;;;;;;14.30;nan;60984.91;5034541;28;20225;-65
2023/10/07 05:41:14;;;;;;;1.63;1.45;;;;;;;14.37;nan;61048.78;5034298;28;20172;-64
2023/10/07 05:43:43;;;;;;;1.42;1.08;;;;;;;14.34;nan;61024.81;5034548;28;20321;-65
2023/10/07 05:46:08;;;;;;;1.00;1.00;;;;;;;14.22;nan;60981.03;5034074;28;20682;-68
2023/10/07 05:48:37;;;;;;;5.43;1.27;;;;;;;14.62;nan;61053.81;5034676;28;20262;-65
2023/10/07 05:51:03;;;;;;;1.30;1.20;;;;;;;14.67;nan;61198.28;5034571;28;20179;-64
2023/10/07 05:53:29;;;;;;;1.02;0.93;;;;;;;14.70;nan;61219.69;5034400;28;20175;-66
2023/10/07 05:55:54;;;;;;;1.95;1.27;;;;;;;15.00;nan;61129.53;5033924;28;20206;-65
2023/10/07 05:58:21;;;;;;;1.27;1.17;;;;;;;14.84;nan;61206.66;5034046;28;20243;-63
2023/10/07 06:00:46;;;;;;;1.35;1.25;;;;;;;14.98;nan;61045.50;5026303;28;20183;-66
2023/10/07 06:03:12;;;;;;;1.15;1.10;;;;;;;15.53;nan;61127.00;5014598;28;20188;-65
2023/10/07 06:05:38;;;;;;;1.20;1.10;;;;;;;14.47;nan;61152.59;5014314;28;20198;-64
2023/10/07 06:08:08;;;;;;;2.15;1.60;;;;;;;14.32;nan;61148.47;5014820;28;20187;-65
2023/10/07 06:10:33;;;;;;;3.70;1.88;;;;;;;15.28;nan;61230.03;5013853;28;20639;-64
2023/10/07 06:13:08;;;;;;;1.25;1.15;;;;;;;15.62;nan;61183.50;5014138;28;20206;-64
2023/10/07 06:15:37;;;;;;;0.90;0.90;;;;;;;15.78;nan;61162.91;5012298;28;20175;-64
2023/10/07 06:18:04;;;;;;;1.50;1.10;;;;;;;16.09;nan;61235.41;5014165;28;20400;-64
2023/10/07 06:20:37;;;;;;;0.80;0.80;;;;;;;16.09;nan;61408.63;5012883;28;20578;-64
2023/10/07 06:23:13;;;;;;;1.55;1.45;;;;;;;;;;5012601;28;20196;-65
2023/10/07 06:25:41;;;;;;;1.23;1.10;;;;;;;16.14;nan;61192.63;5029852;28;20260;-64
2023/10/07 06:28:07;;;;;;;1.73;1.40;;;;;;;16.54;nan;61430.66;5014498;28;20180;-63
2023/10/07 06:30:32;;;;;;;1.20;1.00;;;;;;;16.70;nan;61468.84;5016443;28;20202;-64
2023/10/07 06:33:03;;;;;;;1.08;0.98;;;;;;;16.92;nan;61281.59;5021161;28;20230;-65
2023/10/07 06:35:29;;;;;;;2.20;1.20;;;;;;;16.81;nan;61258.84;5013603;28;20647;-65
2023/10/07 06:37:57;;;;;;;1.70;1.13;;;;;;;17.08;nan;61289.91;5012268;28;20176;-65
2023/10/07 06:40:29;;;;;;;1.20;1.10;;;;;;;17.06;nan;61390.34;5013879;28;20241;-66
2023/10/07 06:42:58;;;;;;;1.33;1.15;;;;;;;16.94;nan;61274.09;5013753;28;20161;-69
2023/10/07 06:45:29;;;;;;;1.20;1.17;;;;;;;17.08;nan;61434.47;5013230;28;20322;-65
2023/10/07 06:47:57;;;;;;;0.80;0.80;;;;;;;17.16;nan;61324.19;5013240;28;20210;-65
2023/10/07 06:50:27;;;;;;;1.25;1.20;;;;;;;17.17;nan;61291.75;5013294;28;20184;-65
2023/10/07 06:52:55;;;;;;;1.48;1.38;;;;;;;17.52;nan;61312.66;5013324;28;20186;-66
2023/10/07 06:55:22;;;;;;;3.10;0.80;;;;;;;17.23;nan;61308.88;5013069;28;20172;-65
2023/10/07 06:57:56;;;;;;;1.02;1.00;;;;;;;17.50;nan;61349.72;5013198;28;20418;-65
2023/10/07 07:00:27;;;;;;;0.77;0.77;;;;;;;17.91;nan;61413.59;5012026;28;20551;-66
2023/10/07 07:02:59;;;;;;;1.15;1.05;;;;;;;17.99;nan;61447.91;5013072;28;20180;-64
2023/10/07 07:05:27;;;;;;;1.02;1.02;;;;;;;18.17;nan;61540.72;5013067;28;20242;-66
2023/10/07 07:07:53;;;;;;;0.90;0.88;;;;;;;18.37;nan;61441.78;5013256;28;20654;-66
2023/10/07 07:10:31;;;;;;;1.13;1.02;;;;;;;18.45;nan;61510.34;5012881;28;20164;-65
2023/10/07 07:12:59;;;;;;;1.20;1.10;;;;;;;18.78;nan;61466.34;5012946;28;20193;-67
2023/10/07 07:15:36;;;;;;;0.90;0.90;;;;;;;18.77;nan;61535.69;5013273;28;20166;-68
2023/10/07 07:18:08;;;;;;;0.75;0.75;;;;;;;18.87;nan;61629.28;5012898;28;20196;-65
2023/10/07 07:20:48;;;;;;;1.15;0.90;;;;;;;18.77;nan;61498.88;5012903;28;20164;-67
2023/10/07 07:23:16;;;;;;;5.07;0.95;;;;;;;18.82;nan;61569.81;5013108;28;20179;-65
2023/10/07 07:25:43;;;;;;;1.20;1.15;;;;;;;18.71;nan;61492.09;5012508;28;20203;-67
2023/10/07 07:28:13;;;;;;;0.90;0.90;;;;;;;18.53;nan;61410.75;5012653;28;20176;-66
2023/10/07 07:30:39;;;;;;;3.17;1.30;;;;;;;18.83;nan;61614.38;5012473;28;20581;-65
2023/10/07 07:33:08;;;;;;;1.13;0.90;;;;;;;18.93;nan;61485.91;5012409;28;20172;-67
2023/10/07 07:35:44;;;;;;;0.90;0.90;;;;;;;19.29;nan;61536.44;5012463;28;20203;-65
2023/10/07 07:38:25;;;;;;;1.05;1.02;;;;;;;19.34;nan;61553.03;5012056;28;20156;-67
2023/10/07 07:41:01;;;;;;;0.77;0.77;;;;;;;19.54;nan;61580.34;5011993;28;20612;-65
2023/10/07 07:43:26;;;;;;;2.22;1.00;;;;;;;19.41;nan;61803.97;5010217;28;20593;-65
2023/10/07 07:46:05;;;;;;;1.00;1.00;;;;;;;19.58;nan;61590.06;5011207;28;20274;-65
2023/10/07 07:48:36;;;;;;;1.15;0.90;;;;;;;19.89;nan;61736.09;5025909;28;20179;-67
2023/10/07 07:51:03;;;;;;;1.70;1.20;;;;;;;19.70;nan;61551.22;5015438;28;20180;-65
2023/10/07 07:53:30;;;;;;;1.25;1.15;;;;;;;19.78;nan;61560.28;5014106;28;20164;-64
2023/10/07 07:55:58;;;;;;;1.13;1.02;;;;;;;19.97;nan;61744.63;5032181;28;20178;-66
2023/10/07 07:58:24;;;;;;;1.42;1.33;;;;;;;20.00;nan;61650.03;5032158;28;20309;-67
2023/10/07 08:00:58;;;;;;;1.33;1.23;;;;;;;20.25;nan;61701.19;5031588;28;20180;-68
2023/10/07 08:03:26;;;;;;;1.50;1.02;;;;;;;20.32;nan;61703.94;5031989;28;20164;-65
2023/10/07 08:05:51;;;;;;;1.38;1.00;;;;;;;20.31;nan;61687.22;5031597;28;20202;-63
2023/10/07 08:08:26;;;;;;;1.20;1.10;;;;;;;20.40;nan;61676.69;5031802;28;20175;-67
2023/10/07 08:10:54;;;;;;;1.60;1.27;;;;;;;20.42;nan;61668.00;5032579;28;20178;-64
2023/10/07 08:13:23;;;;;;;1.42;1.33;;;;;;;20.44;nan;61689.00;5031823;28;20689;-65
2023/10/07 08:15:52;;;;;;;2.40;1.45;;;;;;;20.68;nan;61723.44;5031354;28;20168;-66
2023/10/07 08:18:22;;;;;;;1.02;0.98;;;;;;;17.77;nan;62896.28;5031618;28;20213;-67
2023/10/07 08:20:56;;;;;;;1.00;1.00;;;;;;;21.23;nan;61867.91;5031564;28;20254;-66
2023/10/07 08:23:28;;;;;;;1.75;1.05;;;;;;;21.14;nan;61864.00;5031575;28;20201;-66
2023/10/07 08:26:09;;;;;;;1.25;1.02;;;;;;;21.21;nan;61881.22;5031201;28;20257;-66
2023/10/07 08:28:43;;;;;;;1.40;1.00;;;;;;;21.44;nan;61826.78;5031278;28;20166;-65
2023/10/07 08:31:57;;;;;;;1.00;1.00;;;;;;;21.49;nan;61790.88;5031646;28;20171;-66
2023/10/07 08:36:34;;;;;;;3.30;1.23;;;;;;;21.47;nan;61781.34;5031635;28;20193;-67
2023/10/07 08:39:05;;;;;;;2.90;1.10;;;;;;;21.66;nan;61825.75;5031531;28;20547;-68
2023/10/07 08:41:31;;;;;;;0.85;0.85;;;;;;;21.63;nan;61983.59;5031659;28;20265;-66
2023/10/07 08:44:05;;;;;;;1.30;1.20;;;;;;;22.02;nan;61999.38;5037329;28;20171;-67
2023/10/07 08:46:39;;;;;;;1.38;1.00;;;;;;;22.02;nan;62111.28;5038117;28;20618;-66
2023/10/07 08:49:14;;;;;;;1.00;0.90;;;;;;;22.09;nan;61896.91;5038048;28;20163;-68
2023/10/07 08:51:42;;;;;;;1.27;1.00;;;;;;;22.06;nan;61997.59;5038075;28;20166;-67
2023/10/07 08:54:17;;;;;;;1.15;0.77;;;;;;;21.94;nan;61844.00;5038166;28;20182;-66
2023/10/07 08:56:54;;;;;;;0.95;0.88;;;;;;;21.96;nan;61867.66;5037720;28;20249;-67
2023/10/07 08:59:22;;;;;;;1.00;0.90;;;;;;;22.03;nan;61990.13;5037177;28;20196;-69
2023/10/07 09:01:50;;;;;;;0.88;0.82;;;;;;;22.43;nan;61917.88;5007756;28;20260;-66
2023/10/07 09:04:18;;;;;;;0.80;0.80;;;;;;;22.32;nan;61891.81;5015864;28;20294;-67
2023/10/07 09:06:50;;;;;;;1.13;1.08;;;;;;;22.34;nan;61993.00;5018588;28;20172;-68
2023/10/07 09:09:54;;;;;;;0.90;0.90;;;;;;;22.31;nan;61836.00;5018692;28;20156;-63
2023/10/07 09:12:29;;;;;;;1.42;1.20;;;;;;;22.45;nan;62167.00;5018784;28;20196;-67
2023/10/07 09:14:57;;;;;;;1.52;1.15;;;;;;;22.56;nan;61919.09;5005038;28;20185;-67
2023/10/07 09:17:26;;;;;;;2.05;1.30;;;;;;;22.50;nan;62037.28;4997730;28;20181;-66
2023/10/07 09:19:57;;;;;;;0.95;0.90;;;;;;;22.48;nan;62076.66;4997938;28;20171;-67
2023/10/07 09:22:24;;;;;;;0.90;0.90;;;;;;;22.63;nan;61918.66;4997908;28;20173;-65
2023/10/07 09:24:54;;;;;;;1.50;1.10;;;;;;;22.63;nan;62059.88;4997953;28;20201;-65
2023/10/07 09:27:36;;;;;;;1.08;0.98;;;;;;;22.80;nan;61933.34;4998014;28;20177;-66
2023/10/07 09:30:34;;;;;;;1.17;1.00;;;;;;;22.86;nan;61927.16;4998083;28;20189;-64
2023/10/07 09:32:55;;;;;;;1.30;1.20;;;;;;;23.11;nan;62113.44;4998179;28;20283;-64
2023/10/07 09:35:22;;;;;;;0.90;0.85;;;;;;;23.29;nan;62034.88;4998673;28;20165;-66
2023/10/07 09:37:53;;;;;;;1.33;1.23;;;;;;;23.28;nan;62091.09;4998522;28;20173;-66
2023/10/07 09:40:53;;;;;;;3.22;0.80;;;;;;;23.34;nan;62069.25;4998303;28;20211;-65
2023/10/07 09:43:07;;;;;;;6.40;1.48;;;;;;;23.71;nan;61990.78;4997751;28;20189;-66
2023/10/07 09:45:34;;;;;;;1.23;1.13;;;;;;;23.87;nan;62128.47;4998429;28;20572;-66
2023/10/07 09:48:00;;;;;;;0.98;0.98;;;;;;;23.62;nan;62161.16;4998520;28;20173;-66
2023/10/07 09:50:33;;;;;;;1.38;0.93;;;;;;;23.55;nan;62132.31;4998699;28;20628;-67
2023/10/07 09:53:30;;;;;;;2.65;0.98;;;;;;;23.81;nan;62145.72;4998384;28;20205;-65
2023/10/07 09:56:11;;;;;;;1.30;0.85;;;;;;;23.92;nan;62162.88;4995385;28;20153;-66
2023/10/07 09:59:02;;;;;;;2.15;0.80;;;;;;;23.92;nan;62327.34;4994937;28;20255;-65
2023/10/07 10:01:46;;;;;;;1.50;1.10;;;;;;;24.12;nan;62227.47;4995022;28;20320;-65
2023/10/07 10:04:43;;;;;;;0.80;0.80;;;;;;;24.16;nan;62188.22;4995598;28;20235;-65
2023/10/07 10:07:28;;;;;;;2.22;1.40;;;;;;;24.25;nan;62177.03;4994992;28;20172;-66
2023/10/07 10:10:13;;;;;;;1.40;1.20;;;;;;;24.26;nan;62269.56;4995055;28;20165;-67
2023/10/07 10:12:53;;;;;;;1.65;1.45;;;;;;;24.42;nan;62161.84;4995324;28;20175;-66
2023/10/07 10:17:55;;;;;;;1.52;1.15;;;;;;;24.40;nan;62128.81;4994991;28;20183;-66
2023/10/07 10:20:27;;;;;;;1.48;1.30;;;;;;;24.46;nan;62143.47;4994654;28;20187;-65
2023/10/07 10:22:53;;;;;;;0.80;0.80;;;;;;;24.30;nan;62161.81;4995150;28;20668;-64
2023/10/07 10:25:36;;;;;;;1.35;1.20;;;;;;;24.33;nan;62086.31;4994778;28;20714;-65
2023/10/07 10:28:07;;;;;;;1.67;1.38;;;;;;;24.33;nan;62144.34;4994863;28;20171;-65
2023/10/07 10:30:33;;;;;;;1.25;1.05;;;;;;;24.26;nan;62321.81;4994891;28;20168;-67
2023/10/07 10:33:00;;;;;;;1.05;0.95;;;;;;;24.41;nan;62156.06;4994484;28;20263;-66
2023/10/07 10:35:27;;;;;;;1.55;1.27;;;;;;;24.21;nan;62099.34;4994754;28;20670;-67
2023/10/07 10:37:56;;;;;;;0.95;0.88;;;;;;;24.16;nan;62154.28;4994857;28;20182;-66
2023/10/07 10:40:22;;;;;;;1.42;1.20;;;;;;;24.27;nan;62304.69;4994696;28;20177;-66
2023/10/07 10:42:48;;;;;;;1.13;1.00;;;;;;;24.10;nan;62110.28;4994859;28;20172;-66
2023/10/07 10:45:19;;;;;;;3.67;1.38;;;;;;;24.50;nan;62276.06;4994695;28;20188;-66
2023/10/07 10:47:50;;;;;;;1.67;1.17;;;;;;;24.60;nan;62196.00;4994546;28;20622;-66
2023/10/07 10:50:17;;;;;;;1.10;1.00;;;;;;;24.65;nan;62259.19;4994452;28;20176;-66
2023/10/07 10:52:48;;;;;;;1.23;1.13;;;;;;;24.50;nan;62286.53;4994392;28;20177;-67
2023/10/07 10:55:15;;;;;;;1.42;1.10;;;;;;;24.64;nan;62184.31;4994563;28;20252;-64
2023/10/07 10:57:40;;;;;;;1.70;1.30;;;;;;;24.55;nan;62404.03;4994372;28;20217;-67
2023/10/07 11:00:18;;;;;;;2.15;1.27;;;;;;;24.78;nan;62181.97;4994111;28;20195;-66
2023/10/07 11:02:45;;;;;;;1.80;1.30;;;;;;;24.93;nan;62232.50;4994740;28;20157;-66
2023/10/07 11:05:10;;;;;;;2.00;1.10;;;;;;;24.90;nan;62234.31;4993518;28;20205;-64
2023/10/07 11:07:36;;;;;;;1.55;1.10;;;;;;;24.86;nan;62308.16;4994522;28;20171;-65
2023/10/07 11:10:03;;;;;;;1.52;1.15;;;;;;;25.18;nan;62255.78;4994127;28;20267;-66
2023/10/07 11:12:29;;;;;;;1.35;1.00;;;;;;;25.11;nan;62336.72;4993822;28;20177;-65
2023/10/07 11:15:07;;;;;;;1.20;1.10;;;;;;;25.08;nan;62344.34;4993888;28;20203;-65
2023/10/07 11:17:33;;;;;;;1.67;1.52;;;;;;;25.27;nan;62275.94;4993870;28;20687;-65
2023/10/07 11:20:02;;;;;;;1.15;1.05;;;;;;;25.22;nan;62283.88;4993870;28;20194;-65
2023/10/07 11:22:30;;;;;;;0.98;0.88;;;;;;;25.07;nan;62319.66;4993830;28;20169;-65
2023/10/07 11:24:55;;;;;;;1.50;1.10;;;;;;;24.92;nan;62263.31;4993524;28;20296;-63
2023/10/07 11:27:26;;;;;;;9.15;1.92;;;;;;;24.94;nan;62341.41;4993353;28;20204;-64
2023/10/07 11:30:03;;;;;;;1.27;1.17;;;;;;;25.07;nan;62251.66;4993863;28;20207;-66
2023/10/07 11:32:29;;;;;;;1.35;1.25;;;;;;;25.07;nan;62238.00;4992294;28;20610;-65
2023/10/07 11:34:55;;;;;;;0.60;0.60;;;;;;;25.21;nan;62253.97;4993345;28;20195;-66
2023/10/07 11:37:23;;;;;;;1.05;0.90;;;;;;;25.32;nan;62276.41;4993266;28;20697;-66
2023/10/07 11:39:49;;;;;;;1.10;0.77;;;;;;;25.17;nan;62358.69;4993770;28;20177;-64
2023/10/07 11:42:20;;;;;;;1.38;1.25;;;;;;;25.18;nan;62490.63;4993805;28;20180;-66
2023/10/07 11:44:54;;;;;;;1.00;0.90;;;;;;;25.08;nan;62260.66;4993591;28;20192;-65
2023/10/07 11:47:20;;;;;;;1.42;1.30;;;;;;;25.17;nan;62170.94;4993527;28;20173;-66
2023/10/07 11:49:49;;;;;;;1.40;1.13;;;;;;;25.47;nan;62335.41;4992920;28;20176;-67
2023/10/07 11:52:17;;;;;;;1.42;0.90;;;;;;;25.20;nan;62244.44;4993066;28;20243;-64
2023/10/07 11:54:43;;;;;;;1.48;1.20;;;;;;;25.34;nan;62477.56;4993177;28;20176;-66
2023/10/07 11:57:09;;;;;;;1.50;1.20;;;;;;;25.14;nan;62251.22;4993069;28;20221;-65
2023/10/07 11:59:41;;;;;;;1.40;1.05;;;;;;;25.20;nan;62286.81;4993155;28;20172;-66
2023/10/07 12:02:12;;;;;;;2.58;1.35;;;;;;;25.12;nan;62387.00;5012585;28;20195;-66
2023/10/07 12:04:42;;;;;;;3.47;2.22;;;;;;;25.33;nan;62388.03;5012142;28;20253;-63
2023/10/07 12:07:08;;;;;;;1.42;1.10;;;;;;;25.10;nan;62251.31;5012423;28;20766;-66
2023/10/07 12:09:34;;;;;;;1.55;1.13;;;;;;;25.07;nan;62353.06;5012365;28;20263;-65
2023/10/07 12:12:00;;;;;;;2.65;1.00;;;;;;;25.28;nan;62248.88;5012354;28;20171;-65
2023/10/07 12:14:27;;;;;;;0.90;0.85;;;;;;;25.46;nan;62342.69;5012011;28;20180;-66
2023/10/07 12:16:52;;;;;;;1.23;1.10;;;;;;;25.56;nan;62403.28;5011533;28;20636;-66
2023/10/07 12:19:18;;;;;;;1.52;0.93;;;;;;;23.84;nan;62198.72;5011985;28;20254;-64
2023/10/07 12:21:50;;;;;;;1.00;0.93;;;;;;;25.00;nan;62149.53;5012140;28;20175;-65
2023/10/07 12:24:16;;;;;;;1.15;1.05;;;;;;;25.15;nan;62236.09;5012213;28;20161;-64
2023/10/07 12:26:51;;;;;;;1.20;1.10;;;;;;;25.05;nan;62314.75;5011768;28;20562;-66
2023/10/07 12:29:20;;;;;;;1.85;0.82;;;;;;;25.11;nan;62200.72;5012113;28;20183;-67
2023/10/07 12:31:47;;;;;;;1.05;0.90;;;;;;;25.09;nan;62253.38;5011719;28;20247;-65
2023/10/07 12:34:15;;;;;;;0.93;0.93;;;;;;;25.46;nan;62287.72;5012120;28;20718;-66
2023/10/07 12:36:40;;;;;;;2.40;0.98;;;;;;;25.49;nan;62311.50;5010683;28;20198;-66